sensor_id;sensor_type;location;lat;lon;timestamp;P1;durP1;ratioP1;P2;durP2;ratioP2
8232;SDS011;4157;48.074;9.952;2022-07-06T00:01:07;2.53;;;1.38;;
8232;SDS011;4157;48.074;9.952;2022-07-06T00:03:35;3.83;;;1.50;;
8232;SDS011;4157;48.074;9.952;2022-07-06T00:06:03;2.45;;;1.40;;
8232;SDS011;4157;48.074;9.952;2022-07-06T00:08:31;2.85;;;1.50;;
8232;SDS011;4157;48.074;9.952;2022-07-06T00:10:59;3.10;;;1.50;;
8232;SDS011;4157;48.074;9.952;2022-07-06T00:13:27;3.80;;;1.27;;
8232;SDS011;4157;48.074;9.952;2022-07-06T00:15:55;5.10;;;1.40;;
8232;SDS011;4157;48.074;9.952;2022-07-06T00:18:24;3.08;;;1.30;;
8232;SDS011;4157;48.074;9.952;2022-07-06T00:20:52;3.28;;;1.40;;
8232;SDS011;4157;48.074;9.952;2022-07-06T00:23:20;2.70;;;1.42;;
8232;SDS011;4157;48.074;9.952;2022-07-06T00:25:48;5.32;;;1.80;;
8232;SDS011;4157;48.074;9.952;2022-07-06T00:28:16;3.03;;;1.55;;
8232;SDS011;4157;48.074;9.952;2022-07-06T00:30:43;4.00;;;1.52;;
8232;SDS011;4157;48.074;9.952;2022-07-06T00:33:12;4.22;;;1.60;;
8232;SDS011;4157;48.074;9.952;2022-07-06T00:35:42;3.15;;;1.55;;
8232;SDS011;4157;48.074;9.952;2022-07-06T00:38:10;3.30;;;1.50;;
8232;SDS011;4157;48.074;9.952;2022-07-06T00:40:38;2.78;;;1.65;;
8232;SDS011;4157;48.074;9.952;2022-07-06T00:43:05;4.35;;;1.73;;
8232;SDS011;4157;48.074;9.952;2022-07-06T00:45:33;3.53;;;1.60;;
8232;SDS011;4157;48.074;9.952;2022-07-06T00:48:01;3.85;;;1.55;;
8232;SDS011;4157;48.074;9.952;2022-07-06T00:50:29;3.80;;;1.90;;
8232;SDS011;4157;48.074;9.952;2022-07-06T00:53:01;2.50;;;1.52;;
8232;SDS011;4157;48.074;9.952;2022-07-06T00:55:29;3.55;;;1.58;;
8232;SDS011;4157;48.074;9.952;2022-07-06T00:57:57;5.72;;;1.63;;
8232;SDS011;4157;48.074;9.952;2022-07-06T01:00:26;4.22;;;1.50;;
8232;SDS011;4157;48.074;9.952;2022-07-06T01:02:54;6.15;;;1.80;;
8232;SDS011;4157;48.074;9.952;2022-07-06T01:05:22;2.53;;;1.40;;
8232;SDS011;4157;48.074;9.952;2022-07-06T01:07:51;2.75;;;1.60;;
8232;SDS011;4157;48.074;9.952;2022-07-06T01:10:20;5.57;;;1.63;;
8232;SDS011;4157;48.074;9.952;2022-07-06T01:12:48;2.97;;;1.48;;
8232;SDS011;4157;48.074;9.952;2022-07-06T01:15:17;3.83;;;1.90;;
8232;SDS011;4157;48.074;9.952;2022-07-06T01:17:45;3.45;;;1.58;;
8232;SDS011;4157;48.074;9.952;2022-07-06T01:20:16;3.72;;;1.67;;
8232;SDS011;4157;48.074;9.952;2022-07-06T01:22:45;4.38;;;1.80;;
8232;SDS011;4157;48.074;9.952;2022-07-06T01:25:13;5.30;;;1.85;;
8232;SDS011;4157;48.074;9.952;2022-07-06T01:27:41;5.10;;;2.63;;
8232;SDS011;4157;48.074;9.952;2022-07-06T01:30:10;4.75;;;1.75;;
8232;SDS011;4157;48.074;9.952;2022-07-06T01:32:39;3.88;;;1.92;;
8232;SDS011;4157;48.074;9.952;2022-07-06T01:35:07;4.15;;;1.75;;
8232;SDS011;4157;48.074;9.952;2022-07-06T01:37:37;3.53;;;1.98;;
8232;SDS011;4157;48.074;9.952;2022-07-06T01:40:07;5.50;;;1.83;;
8232;SDS011;4157;48.074;9.952;2022-07-06T01:42:36;3.30;;;1.90;;
8232;SDS011;4157;48.074;9.952;2022-07-06T01:45:04;6.80;;;1.85;;
8232;SDS011;4157;48.074;9.952;2022-07-06T01:47:33;4.25;;;1.90;;
8232;SDS011;4157;48.074;9.952;2022-07-06T01:50:01;5.82;;;1.95;;
8232;SDS011;4157;48.074;9.952;2022-07-06T01:52:32;3.33;;;1.90;;
8232;SDS011;4157;48.074;9.952;2022-07-06T01:55:03;4.28;;;1.65;;
8232;SDS011;4157;48.074;9.952;2022-07-06T01:57:33;4.38;;;1.83;;
8232;SDS011;4157;48.074;9.952;2022-07-06T02:00:02;4.30;;;2.30;;
8232;SDS011;4157;48.074;9.952;2022-07-06T02:02:38;8.30;;;2.65;;
8232;SDS011;4157;48.074;9.952;2022-07-06T02:05:10;6.28;;;2.80;;
8232;SDS011;4157;48.074;9.952;2022-07-06T02:07:38;6.50;;;2.63;;
8232;SDS011;4157;48.074;9.952;2022-07-06T02:10:09;4.70;;;2.42;;
8232;SDS011;4157;48.074;9.952;2022-07-06T02:12:37;5.95;;;3.38;;
8232;SDS011;4157;48.074;9.952;2022-07-06T02:15:05;6.80;;;2.50;;
8232;SDS011;4157;48.074;9.952;2022-07-06T02:17:34;8.23;;;3.08;;
8232;SDS011;4157;48.074;9.952;2022-07-06T02:20:02;4.75;;;2.30;;
8232;SDS011;4157;48.074;9.952;2022-07-06T02:22:30;4.95;;;2.38;;
8232;SDS011;4157;48.074;9.952;2022-07-06T02:24:59;5.60;;;2.22;;
8232;SDS011;4157;48.074;9.952;2022-07-06T02:27:29;4.15;;;2.33;;
8232;SDS011;4157;48.074;9.952;2022-07-06T02:29:57;5.00;;;2.15;;
8232;SDS011;4157;48.074;9.952;2022-07-06T02:32:25;6.88;;;2.53;;
8232;SDS011;4157;48.074;9.952;2022-07-06T02:34:53;5.35;;;2.47;;
8232;SDS011;4157;48.074;9.952;2022-07-06T02:37:21;3.35;;;2.10;;
8232;SDS011;4157;48.074;9.952;2022-07-06T02:39:49;4.95;;;2.13;;
8232;SDS011;4157;48.074;9.952;2022-07-06T02:42:17;4.05;;;2.33;;
8232;SDS011;4157;48.074;9.952;2022-07-06T02:44:47;5.47;;;2.40;;
8232;SDS011;4157;48.074;9.952;2022-07-06T02:47:15;4.38;;;2.60;;
8232;SDS011;4157;48.074;9.952;2022-07-06T02:49:43;6.10;;;2.47;;
8232;SDS011;4157;48.074;9.952;2022-07-06T02:52:11;5.68;;;2.92;;
8232;SDS011;4157;48.074;9.952;2022-07-06T02:54:39;10.27;;;2.95;;
8232;SDS011;4157;48.074;9.952;2022-07-06T02:57:07;6.65;;;2.30;;
8232;SDS011;4157;48.074;9.952;2022-07-06T02:59:35;5.15;;;2.25;;
8232;SDS011;4157;48.074;9.952;2022-07-06T03:02:05;4.57;;;2.40;;
8232;SDS011;4157;48.074;9.952;2022-07-06T03:04:33;4.43;;;2.65;;
8232;SDS011;4157;48.074;9.952;2022-07-06T03:07:01;4.97;;;2.53;;
8232;SDS011;4157;48.074;9.952;2022-07-06T03:09:29;5.95;;;2.55;;
8232;SDS011;4157;48.074;9.952;2022-07-06T03:11:58;4.85;;;2.60;;
8232;SDS011;4157;48.074;9.952;2022-07-06T03:14:28;8.15;;;3.00;;
8232;SDS011;4157;48.074;9.952;2022-07-06T03:16:56;6.03;;;2.38;;
8232;SDS011;4157;48.074;9.952;2022-07-06T03:19:25;5.47;;;2.30;;
8232;SDS011;4157;48.074;9.952;2022-07-06T03:21:53;5.20;;;2.53;;
8232;SDS011;4157;48.074;9.952;2022-07-06T03:24:21;4.47;;;2.55;;
8232;SDS011;4157;48.074;9.952;2022-07-06T03:26:49;5.45;;;2.30;;
8232;SDS011;4157;48.074;9.952;2022-07-06T03:29:18;3.92;;;2.17;;
8232;SDS011;4157;48.074;9.952;2022-07-06T03:31:46;5.90;;;2.30;;
8232;SDS011;4157;48.074;9.952;2022-07-06T03:34:14;7.47;;;2.45;;
8232;SDS011;4157;48.074;9.952;2022-07-06T03:36:44;4.60;;;2.53;;
8232;SDS011;4157;48.074;9.952;2022-07-06T03:39:12;6.20;;;2.40;;
8232;SDS011;4157;48.074;9.952;2022-07-06T03:41:40;7.20;;;2.58;;
8232;SDS011;4157;48.074;9.952;2022-07-06T03:44:09;5.53;;;2.25;;
8232;SDS011;4157;48.074;9.952;2022-07-06T03:46:37;5.97;;;2.45;;
8232;SDS011;4157;48.074;9.952;2022-07-06T03:49:06;5.35;;;2.38;;
8232;SDS011;4157;48.074;9.952;2022-07-06T03:51:34;5.60;;;2.70;;
8232;SDS011;4157;48.074;9.952;2022-07-06T03:54:05;4.75;;;2.20;;
8232;SDS011;4157;48.074;9.952;2022-07-06T03:56:33;8.20;;;2.38;;
8232;SDS011;4157;48.074;9.952;2022-07-06T03:59:10;6.38;;;2.63;;
8232;SDS011;4157;48.074;9.952;2022-07-06T04:01:38;5.30;;;2.67;;
8232;SDS011;4157;48.074;9.952;2022-07-06T04:04:07;4.88;;;2.35;;
8232;SDS011;4157;48.074;9.952;2022-07-06T04:06:38;3.60;;;2.38;;
8232;SDS011;4157;48.074;9.952;2022-07-06T04:09:08;6.13;;;2.80;;
8232;SDS011;4157;48.074;9.952;2022-07-06T04:11:37;5.47;;;2.67;;
8232;SDS011;4157;48.074;9.952;2022-07-06T04:14:05;5.18;;;2.63;;
8232;SDS011;4157;48.074;9.952;2022-07-06T04:16:33;5.53;;;2.53;;
8232;SDS011;4157;48.074;9.952;2022-07-06T04:19:01;8.63;;;2.80;;
8232;SDS011;4157;48.074;9.952;2022-07-06T04:21:28;5.53;;;2.45;;
8232;SDS011;4157;48.074;9.952;2022-07-06T04:23:58;5.40;;;2.25;;
8232;SDS011;4157;48.074;9.952;2022-07-06T04:26:28;6.53;;;3.40;;
8232;SDS011;4157;48.074;9.952;2022-07-06T04:28:57;6.15;;;3.70;;
8232;SDS011;4157;48.074;9.952;2022-07-06T04:31:27;5.45;;;2.65;;
8232;SDS011;4157;48.074;9.952;2022-07-06T04:33:55;5.10;;;2.50;;
8232;SDS011;4157;48.074;9.952;2022-07-06T04:36:24;9.90;;;5.85;;
8232;SDS011;4157;48.074;9.952;2022-07-06T04:38:54;14.75;;;6.85;;
8232;SDS011;4157;48.074;9.952;2022-07-06T04:41:23;11.77;;;6.00;;
8232;SDS011;4157;48.074;9.952;2022-07-06T04:43:54;13.73;;;6.50;;
8232;SDS011;4157;48.074;9.952;2022-07-06T04:46:22;9.30;;;5.78;;
8232;SDS011;4157;48.074;9.952;2022-07-06T04:48:52;10.32;;;5.32;;
8232;SDS011;4157;48.074;9.952;2022-07-06T04:51:25;9.15;;;4.85;;
8232;SDS011;4157;48.074;9.952;2022-07-06T04:53:53;10.00;;;4.80;;
8232;SDS011;4157;48.074;9.952;2022-07-06T04:56:22;8.50;;;4.90;;
8232;SDS011;4157;48.074;9.952;2022-07-06T04:58:50;7.90;;;4.20;;
8232;SDS011;4157;48.074;9.952;2022-07-06T05:01:21;7.72;;;4.03;;
8232;SDS011;4157;48.074;9.952;2022-07-06T05:03:49;8.00;;;4.05;;
8232;SDS011;4157;48.074;9.952;2022-07-06T05:06:20;7.38;;;3.47;;
8232;SDS011;4157;48.074;9.952;2022-07-06T05:08:49;4.97;;;2.97;;
8232;SDS011;4157;48.074;9.952;2022-07-06T05:11:17;7.43;;;2.83;;
8232;SDS011;4157;48.074;9.952;2022-07-06T05:13:47;4.28;;;2.60;;
8232;SDS011;4157;48.074;9.952;2022-07-06T05:16:16;5.80;;;2.47;;
8232;SDS011;4157;48.074;9.952;2022-07-06T05:18:45;6.93;;;2.75;;
8232;SDS011;4157;48.074;9.952;2022-07-06T05:21:13;4.68;;;2.40;;
8232;SDS011;4157;48.074;9.952;2022-07-06T05:23:41;5.10;;;3.03;;
8232;SDS011;4157;48.074;9.952;2022-07-06T05:26:10;5.82;;;3.03;;
8232;SDS011;4157;48.074;9.952;2022-07-06T05:28:37;9.38;;;3.08;;
8232;SDS011;4157;48.074;9.952;2022-07-06T05:31:09;5.75;;;3.22;;
8232;SDS011;4157;48.074;9.952;2022-07-06T05:33:37;4.95;;;3.10;;
8232;SDS011;4157;48.074;9.952;2022-07-06T05:36:07;7.32;;;3.20;;
8232;SDS011;4157;48.074;9.952;2022-07-06T05:38:35;6.10;;;3.00;;
8232;SDS011;4157;48.074;9.952;2022-07-06T05:41:02;5.30;;;2.75;;
8232;SDS011;4157;48.074;9.952;2022-07-06T05:43:32;5.95;;;3.03;;
8232;SDS011;4157;48.074;9.952;2022-07-06T05:46:00;5.95;;;2.90;;
8232;SDS011;4157;48.074;9.952;2022-07-06T05:48:30;5.63;;;3.20;;
8232;SDS011;4157;48.074;9.952;2022-07-06T05:51:18;6.88;;;2.88;;
8232;SDS011;4157;48.074;9.952;2022-07-06T05:53:46;4.53;;;2.72;;
8232;SDS011;4157;48.074;9.952;2022-07-06T05:56:14;6.47;;;2.95;;
8232;SDS011;4157;48.074;9.952;2022-07-06T05:58:42;5.45;;;2.95;;
8232;SDS011;4157;48.074;9.952;2022-07-06T06:01:10;5.28;;;2.85;;
8232;SDS011;4157;48.074;9.952;2022-07-06T06:03:41;6.07;;;2.80;;
8232;SDS011;4157;48.074;9.952;2022-07-06T06:06:10;4.80;;;2.72;;
8232;SDS011;4157;48.074;9.952;2022-07-06T06:08:39;5.07;;;2.65;;
8232;SDS011;4157;48.074;9.952;2022-07-06T06:11:08;7.15;;;2.95;;
8232;SDS011;4157;48.074;9.952;2022-07-06T06:13:35;7.90;;;2.80;;
8232;SDS011;4157;48.074;9.952;2022-07-06T06:16:03;7.43;;;2.72;;
8232;SDS011;4157;48.074;9.952;2022-07-06T06:18:32;5.38;;;2.72;;
8232;SDS011;4157;48.074;9.952;2022-07-06T06:21:00;5.38;;;2.30;;
8232;SDS011;4157;48.074;9.952;2022-07-06T06:23:27;4.97;;;2.58;;
8232;SDS011;4157;48.074;9.952;2022-07-06T06:25:57;4.53;;;2.38;;
8232;SDS011;4157;48.074;9.952;2022-07-06T06:28:24;5.50;;;2.47;;
8232;SDS011;4157;48.074;9.952;2022-07-06T06:30:52;4.88;;;2.67;;
8232;SDS011;4157;48.074;9.952;2022-07-06T06:33:20;6.35;;;2.50;;
8232;SDS011;4157;48.074;9.952;2022-07-06T06:35:49;3.40;;;2.17;;
8232;SDS011;4157;48.074;9.952;2022-07-06T06:38:17;6.68;;;2.60;;
8232;SDS011;4157;48.074;9.952;2022-07-06T06:40:45;6.32;;;2.63;;
8232;SDS011;4157;48.074;9.952;2022-07-06T06:43:14;5.85;;;2.92;;
8232;SDS011;4157;48.074;9.952;2022-07-06T06:45:51;7.13;;;2.97;;
8232;SDS011;4157;48.074;9.952;2022-07-06T06:48:19;7.13;;;2.80;;
8232;SDS011;4157;48.074;9.952;2022-07-06T06:50:47;6.38;;;2.55;;
8232;SDS011;4157;48.074;9.952;2022-07-06T06:53:15;5.80;;;2.45;;
8232;SDS011;4157;48.074;9.952;2022-07-06T06:55:43;5.85;;;2.70;;
8232;SDS011;4157;48.074;9.952;2022-07-06T06:58:11;5.25;;;2.58;;
8232;SDS011;4157;48.074;9.952;2022-07-06T07:00:40;7.07;;;2.45;;
8232;SDS011;4157;48.074;9.952;2022-07-06T07:03:09;4.53;;;2.80;;
8232;SDS011;4157;48.074;9.952;2022-07-06T07:05:36;4.55;;;2.42;;
8232;SDS011;4157;48.074;9.952;2022-07-06T07:08:05;5.15;;;2.35;;
8232;SDS011;4157;48.074;9.952;2022-07-06T07:10:32;9.65;;;2.92;;
8232;SDS011;4157;48.074;9.952;2022-07-06T07:13:00;5.70;;;2.55;;
8232;SDS011;4157;48.074;9.952;2022-07-06T07:15:28;8.82;;;2.80;;
8232;SDS011;4157;48.074;9.952;2022-07-06T07:17:57;5.05;;;2.60;;
8232;SDS011;4157;48.074;9.952;2022-07-06T07:20:25;7.50;;;2.92;;
8232;SDS011;4157;48.074;9.952;2022-07-06T07:22:55;8.35;;;2.60;;
8232;SDS011;4157;48.074;9.952;2022-07-06T07:25:23;6.47;;;2.72;;
8232;SDS011;4157;48.074;9.952;2022-07-06T07:27:51;6.30;;;2.63;;
8232;SDS011;4157;48.074;9.952;2022-07-06T07:30:19;8.00;;;2.70;;
8232;SDS011;4157;48.074;9.952;2022-07-06T07:32:47;4.18;;;2.33;;
8232;SDS011;4157;48.074;9.952;2022-07-06T07:35:16;4.90;;;2.30;;
8232;SDS011;4157;48.074;9.952;2022-07-06T07:37:44;3.50;;;2.20;;
8232;SDS011;4157;48.074;9.952;2022-07-06T07:40:12;6.32;;;2.30;;
8232;SDS011;4157;48.074;9.952;2022-07-06T07:42:39;4.75;;;2.35;;
8232;SDS011;4157;48.074;9.952;2022-07-06T07:45:09;5.32;;;2.70;;
8232;SDS011;4157;48.074;9.952;2022-07-06T07:47:38;6.03;;;2.50;;
8232;SDS011;4157;48.074;9.952;2022-07-06T07:50:07;3.83;;;2.47;;
8232;SDS011;4157;48.074;9.952;2022-07-06T07:52:36;6.30;;;2.38;;
8232;SDS011;4157;48.074;9.952;2022-07-06T07:55:04;5.10;;;2.55;;
8232;SDS011;4157;48.074;9.952;2022-07-06T07:57:32;6.60;;;2.70;;
8232;SDS011;4157;48.074;9.952;2022-07-06T08:00:00;5.32;;;2.70;;
8232;SDS011;4157;48.074;9.952;2022-07-06T08:02:37;6.03;;;2.65;;
8232;SDS011;4157;48.074;9.952;2022-07-06T08:05:05;3.85;;;2.53;;
8232;SDS011;4157;48.074;9.952;2022-07-06T08:07:33;3.88;;;2.40;;
8232;SDS011;4157;48.074;9.952;2022-07-06T08:10:02;5.78;;;2.47;;
8232;SDS011;4157;48.074;9.952;2022-07-06T08:12:30;7.10;;;2.55;;
8232;SDS011;4157;48.074;9.952;2022-07-06T08:14:58;6.00;;;2.45;;
8232;SDS011;4157;48.074;9.952;2022-07-06T08:17:26;6.55;;;2.35;;
8232;SDS011;4157;48.074;9.952;2022-07-06T08:19:54;5.00;;;2.33;;
8232;SDS011;4157;48.074;9.952;2022-07-06T08:22:22;5.45;;;2.42;;
8232;SDS011;4157;48.074;9.952;2022-07-06T08:24:50;7.25;;;2.70;;
8232;SDS011;4157;48.074;9.952;2022-07-06T08:27:19;6.05;;;2.47;;
8232;SDS011;4157;48.074;9.952;2022-07-06T08:29:47;4.30;;;2.85;;
8232;SDS011;4157;48.074;9.952;2022-07-06T08:32:15;7.65;;;2.78;;
8232;SDS011;4157;48.074;9.952;2022-07-06T08:34:42;5.35;;;2.40;;
8232;SDS011;4157;48.074;9.952;2022-07-06T08:37:10;5.72;;;2.70;;
8232;SDS011;4157;48.074;9.952;2022-07-06T08:39:38;4.72;;;2.65;;
8232;SDS011;4157;48.074;9.952;2022-07-06T08:42:07;6.22;;;2.80;;
8232;SDS011;4157;48.074;9.952;2022-07-06T08:44:36;5.72;;;2.58;;
8232;SDS011;4157;48.074;9.952;2022-07-06T08:47:05;6.40;;;2.40;;
8232;SDS011;4157;48.074;9.952;2022-07-06T08:49:36;4.53;;;2.40;;
8232;SDS011;4157;48.074;9.952;2022-07-06T08:52:05;5.32;;;2.72;;
8232;SDS011;4157;48.074;9.952;2022-07-06T08:54:33;5.22;;;2.75;;
8232;SDS011;4157;48.074;9.952;2022-07-06T08:57:02;4.97;;;2.67;;
8232;SDS011;4157;48.074;9.952;2022-07-06T08:59:30;8.63;;;2.50;;
8232;SDS011;4157;48.074;9.952;2022-07-06T09:01:59;5.80;;;2.63;;
8232;SDS011;4157;48.074;9.952;2022-07-06T09:04:27;6.45;;;2.38;;
8232;SDS011;4157;48.074;9.952;2022-07-06T09:06:55;6.30;;;2.20;;
8232;SDS011;4157;48.074;9.952;2022-07-06T09:09:24;4.43;;;2.13;;
8232;SDS011;4157;48.074;9.952;2022-07-06T09:11:52;7.63;;;2.60;;
8232;SDS011;4157;48.074;9.952;2022-07-06T09:14:19;5.05;;;3.17;;
8232;SDS011;4157;48.074;9.952;2022-07-06T09:16:51;6.13;;;2.50;;
8232;SDS011;4157;48.074;9.952;2022-07-06T09:19:20;5.15;;;2.05;;
8232;SDS011;4157;48.074;9.952;2022-07-06T09:21:48;7.13;;;2.33;;
8232;SDS011;4157;48.074;9.952;2022-07-06T09:24:16;6.32;;;2.25;;
8232;SDS011;4157;48.074;9.952;2022-07-06T09:26:46;9.13;;;2.83;;
8232;SDS011;4157;48.074;9.952;2022-07-06T09:29:14;5.53;;;2.65;;
8232;SDS011;4157;48.074;9.952;2022-07-06T09:31:42;6.22;;;2.70;;
8232;SDS011;4157;48.074;9.952;2022-07-06T09:34:11;6.63;;;2.40;;
8232;SDS011;4157;48.074;9.952;2022-07-06T09:36:43;5.40;;;2.10;;
8232;SDS011;4157;48.074;9.952;2022-07-06T09:41:58;6.28;;;2.65;;
8232;SDS011;4157;48.074;9.952;2022-07-06T09:44:27;5.00;;;2.50;;
8232;SDS011;4157;48.074;9.952;2022-07-06T09:46:56;4.80;;;2.40;;
8232;SDS011;4157;48.074;9.952;2022-07-06T09:49:24;5.38;;;2.58;;
8232;SDS011;4157;48.074;9.952;2022-07-06T09:51:55;7.28;;;2.45;;
8232;SDS011;4157;48.074;9.952;2022-07-06T09:54:23;9.65;;;2.70;;
8232;SDS011;4157;48.074;9.952;2022-07-06T09:56:51;5.40;;;2.35;;
8232;SDS011;4157;48.074;9.952;2022-07-06T09:59:21;8.05;;;2.47;;
8232;SDS011;4157;48.074;9.952;2022-07-06T10:01:50;4.50;;;1.95;;
8232;SDS011;4157;48.074;9.952;2022-07-06T10:04:18;3.63;;;2.00;;
8232;SDS011;4157;48.074;9.952;2022-07-06T10:06:46;4.95;;;2.10;;
8232;SDS011;4157;48.074;9.952;2022-07-06T10:09:16;5.07;;;2.30;;
8232;SDS011;4157;48.074;9.952;2022-07-06T10:11:47;4.30;;;2.38;;
8232;SDS011;4157;48.074;9.952;2022-07-06T10:14:17;4.22;;;1.83;;
8232;SDS011;4157;48.074;9.952;2022-07-06T10:16:45;5.10;;;2.03;;
8232;SDS011;4157;48.074;9.952;2022-07-06T10:19:13;6.80;;;2.10;;
8232;SDS011;4157;48.074;9.952;2022-07-06T10:21:42;3.70;;;1.80;;
8232;SDS011;4157;48.074;9.952;2022-07-06T10:24:10;5.82;;;2.00;;
8232;SDS011;4157;48.074;9.952;2022-07-06T10:26:40;3.30;;;1.98;;
8232;SDS011;4157;48.074;9.952;2022-07-06T10:29:08;4.30;;;2.08;;
8232;SDS011;4157;48.074;9.952;2022-07-06T10:31:38;4.68;;;1.55;;
8232;SDS011;4157;48.074;9.952;2022-07-06T10:34:06;3.45;;;1.60;;
8232;SDS011;4157;48.074;9.952;2022-07-06T10:36:36;4.35;;;1.77;;
8232;SDS011;4157;48.074;9.952;2022-07-06T10:39:04;5.95;;;1.90;;
8232;SDS011;4157;48.074;9.952;2022-07-06T10:41:48;5.00;;;2.10;;
8232;SDS011;4157;48.074;9.952;2022-07-06T10:44:16;3.95;;;1.40;;
8232;SDS011;4157;48.074;9.952;2022-07-06T10:46:50;4.88;;;1.60;;
8232;SDS011;4157;48.074;9.952;2022-07-06T10:49:19;7.10;;;2.00;;
8232;SDS011;4157;48.074;9.952;2022-07-06T10:51:47;4.93;;;1.50;;
8232;SDS011;4157;48.074;9.952;2022-07-06T10:54:16;9.25;;;2.00;;
8232;SDS011;4157;48.074;9.952;2022-07-06T10:56:45;6.28;;;1.90;;
8232;SDS011;4157;48.074;9.952;2022-07-06T10:59:15;8.88;;;1.58;;
8232;SDS011;4157;48.074;9.952;2022-07-06T11:04:30;4.07;;;1.70;;
8232;SDS011;4157;48.074;9.952;2022-07-06T11:07:02;3.45;;;1.67;;
8232;SDS011;4157;48.074;9.952;2022-07-06T11:09:34;3.40;;;1.77;;
8232;SDS011;4157;48.074;9.952;2022-07-06T11:12:11;4.68;;;2.10;;
8232;SDS011;4157;48.074;9.952;2022-07-06T11:14:41;4.20;;;1.98;;
8232;SDS011;4157;48.074;9.952;2022-07-06T11:17:09;5.93;;;1.90;;
8232;SDS011;4157;48.074;9.952;2022-07-06T11:19:37;4.72;;;2.00;;
8232;SDS011;4157;48.074;9.952;2022-07-06T11:22:06;5.25;;;2.20;;
8232;SDS011;4157;48.074;9.952;2022-07-06T11:24:35;5.30;;;1.80;;
8232;SDS011;4157;48.074;9.952;2022-07-06T11:27:04;5.97;;;2.30;;
8232;SDS011;4157;48.074;9.952;2022-07-06T11:29:33;4.78;;;1.95;;
8232;SDS011;4157;48.074;9.952;2022-07-06T11:32:05;3.30;;;1.90;;
8232;SDS011;4157;48.074;9.952;2022-07-06T11:34:36;5.85;;;2.03;;
8232;SDS011;4157;48.074;9.952;2022-07-06T11:37:05;5.93;;;1.83;;
8232;SDS011;4157;48.074;9.952;2022-07-06T11:39:34;3.75;;;2.08;;
8232;SDS011;4157;48.074;9.952;2022-07-06T11:42:03;6.22;;;2.05;;
8232;SDS011;4157;48.074;9.952;2022-07-06T11:44:31;7.45;;;2.35;;
8232;SDS011;4157;48.074;9.952;2022-07-06T11:49:54;5.68;;;1.85;;
8232;SDS011;4157;48.074;9.952;2022-07-06T11:52:21;6.25;;;1.63;;
8232;SDS011;4157;48.074;9.952;2022-07-06T11:54:56;4.15;;;1.70;;
8232;SDS011;4157;48.074;9.952;2022-07-06T11:57:24;5.68;;;1.90;;
8232;SDS011;4157;48.074;9.952;2022-07-06T11:59:52;4.22;;;1.50;;
8232;SDS011;4157;48.074;9.952;2022-07-06T12:02:22;3.65;;;1.63;;
8232;SDS011;4157;48.074;9.952;2022-07-06T12:04:50;4.47;;;1.77;;
8232;SDS011;4157;48.074;9.952;2022-07-06T12:07:19;5.15;;;2.00;;
8232;SDS011;4157;48.074;9.952;2022-07-06T12:09:47;3.35;;;1.58;;
8232;SDS011;4157;48.074;9.952;2022-07-06T12:12:15;4.40;;;1.63;;
8232;SDS011;4157;48.074;9.952;2022-07-06T12:14:43;3.97;;;1.83;;
8232;SDS011;4157;48.074;9.952;2022-07-06T12:17:12;5.10;;;1.80;;
8232;SDS011;4157;48.074;9.952;2022-07-06T12:19:40;3.63;;;1.80;;
8232;SDS011;4157;48.074;9.952;2022-07-06T12:22:08;3.88;;;1.80;;
8232;SDS011;4157;48.074;9.952;2022-07-06T12:24:42;6.03;;;1.95;;
8232;SDS011;4157;48.074;9.952;2022-07-06T12:27:11;4.82;;;1.80;;
8232;SDS011;4157;48.074;9.952;2022-07-06T12:29:39;3.22;;;1.63;;
8232;SDS011;4157;48.074;9.952;2022-07-06T12:32:13;5.95;;;1.58;;
8232;SDS011;4157;48.074;9.952;2022-07-06T12:37:10;4.30;;;1.65;;
8232;SDS011;4157;48.074;9.952;2022-07-06T12:39:42;4.07;;;1.67;;
8232;SDS011;4157;48.074;9.952;2022-07-06T12:42:12;4.28;;;1.80;;
8232;SDS011;4157;48.074;9.952;2022-07-06T12:44:43;4.40;;;1.70;;
8232;SDS011;4157;48.074;9.952;2022-07-06T12:47:12;3.88;;;1.90;;
8232;SDS011;4157;48.074;9.952;2022-07-06T12:49:40;3.80;;;1.67;;
8232;SDS011;4157;48.074;9.952;2022-07-06T12:52:09;4.60;;;1.67;;
8232;SDS011;4157;48.074;9.952;2022-07-06T12:54:40;3.70;;;1.73;;
8232;SDS011;4157;48.074;9.952;2022-07-06T12:57:10;2.50;;;1.40;;
8232;SDS011;4157;48.074;9.952;2022-07-06T12:59:42;3.03;;;1.67;;
8232;SDS011;4157;48.074;9.952;2022-07-06T13:02:17;4.10;;;1.50;;
8232;SDS011;4157;48.074;9.952;2022-07-06T13:04:54;4.05;;;1.80;;
8232;SDS011;4157;48.074;9.952;2022-07-06T13:07:22;4.68;;;2.00;;
8232;SDS011;4157;48.074;9.952;2022-07-06T13:09:50;4.53;;;2.00;;
8232;SDS011;4157;48.074;9.952;2022-07-06T13:12:19;3.28;;;1.50;;
8232;SDS011;4157;48.074;9.952;2022-07-06T13:14:47;3.30;;;1.55;;
8232;SDS011;4157;48.074;9.952;2022-07-06T13:17:15;3.67;;;1.55;;
8232;SDS011;4157;48.074;9.952;2022-07-06T13:19:43;6.35;;;1.80;;
8232;SDS011;4157;48.074;9.952;2022-07-06T13:22:11;3.35;;;1.50;;
8232;SDS011;4157;48.074;9.952;2022-07-06T13:24:39;3.17;;;1.55;;
8232;SDS011;4157;48.074;9.952;2022-07-06T13:27:07;3.08;;;1.50;;
8232;SDS011;4157;48.074;9.952;2022-07-06T13:29:36;9.38;;;1.60;;
8232;SDS011;4157;48.074;9.952;2022-07-06T13:32:04;3.90;;;1.50;;
8232;SDS011;4157;48.074;9.952;2022-07-06T13:34:32;3.22;;;1.50;;
8232;SDS011;4157;48.074;9.952;2022-07-06T13:37:01;8.25;;;2.90;;
8232;SDS011;4157;48.074;9.952;2022-07-06T13:39:29;4.55;;;1.85;;
8232;SDS011;4157;48.074;9.952;2022-07-06T13:41:57;4.97;;;1.55;;
8232;SDS011;4157;48.074;9.952;2022-07-06T13:44:25;4.15;;;1.60;;
8232;SDS011;4157;48.074;9.952;2022-07-06T13:46:54;4.75;;;1.70;;
8232;SDS011;4157;48.074;9.952;2022-07-06T13:49:22;4.85;;;1.77;;
8232;SDS011;4157;48.074;9.952;2022-07-06T13:51:50;5.88;;;1.85;;
8232;SDS011;4157;48.074;9.952;2022-07-06T13:54:19;11.20;;;2.25;;
8232;SDS011;4157;48.074;9.952;2022-07-06T13:56:47;21.60;;;2.75;;
8232;SDS011;4157;48.074;9.952;2022-07-06T13:59:15;7.18;;;1.70;;
8232;SDS011;4157;48.074;9.952;2022-07-06T14:01:43;9.27;;;1.88;;
8232;SDS011;4157;48.074;9.952;2022-07-06T14:04:12;2.63;;;1.38;;
8232;SDS011;4157;48.074;9.952;2022-07-06T14:06:40;5.63;;;1.50;;
8232;SDS011;4157;48.074;9.952;2022-07-06T14:09:08;3.53;;;1.40;;
8232;SDS011;4157;48.074;9.952;2022-07-06T14:11:36;12.35;;;2.00;;
8232;SDS011;4157;48.074;9.952;2022-07-06T14:14:04;3.78;;;1.70;;
8232;SDS011;4157;48.074;9.952;2022-07-06T14:16:32;3.70;;;1.58;;
8232;SDS011;4157;48.074;9.952;2022-07-06T14:19:01;8.23;;;1.80;;
8232;SDS011;4157;48.074;9.952;2022-07-06T14:21:30;5.82;;;1.80;;
8232;SDS011;4157;48.074;9.952;2022-07-06T14:23:58;5.05;;;1.50;;
8232;SDS011;4157;48.074;9.952;2022-07-06T14:26:26;9.32;;;2.05;;
8232;SDS011;4157;48.074;9.952;2022-07-06T14:28:54;3.35;;;1.33;;
8232;SDS011;4157;48.074;9.952;2022-07-06T14:31:21;5.45;;;1.50;;
8232;SDS011;4157;48.074;9.952;2022-07-06T14:33:49;3.70;;;1.48;;
8232;SDS011;4157;48.074;9.952;2022-07-06T14:36:17;4.38;;;1.58;;
8232;SDS011;4157;48.074;9.952;2022-07-06T14:38:46;5.05;;;1.48;;
8232;SDS011;4157;48.074;9.952;2022-07-06T14:41:14;6.13;;;1.90;;
8232;SDS011;4157;48.074;9.952;2022-07-06T14:43:42;4.70;;;1.50;;
8232;SDS011;4157;48.074;9.952;2022-07-06T14:46:10;3.42;;;1.30;;
8232;SDS011;4157;48.074;9.952;2022-07-06T14:48:38;5.38;;;1.40;;
8232;SDS011;4157;48.074;9.952;2022-07-06T14:51:05;2.75;;;1.40;;
8232;SDS011;4157;48.074;9.952;2022-07-06T14:53:33;4.38;;;1.25;;
8232;SDS011;4157;48.074;9.952;2022-07-06T14:56:03;3.92;;;1.27;;
8232;SDS011;4157;48.074;9.952;2022-07-06T14:58:30;4.15;;;1.70;;
8232;SDS011;4157;48.074;9.952;2022-07-06T15:00:58;9.05;;;1.70;;
8232;SDS011;4157;48.074;9.952;2022-07-06T15:03:26;5.90;;;1.50;;
8232;SDS011;4157;48.074;9.952;2022-07-06T15:05:54;3.17;;;1.45;;
8232;SDS011;4157;48.074;9.952;2022-07-06T15:08:22;4.55;;;1.42;;
8232;SDS011;4157;48.074;9.952;2022-07-06T15:10:50;3.67;;;1.40;;
8232;SDS011;4157;48.074;9.952;2022-07-06T15:13:19;2.25;;;1.10;;
8232;SDS011;4157;48.074;9.952;2022-07-06T15:15:47;3.33;;;1.17;;
8232;SDS011;4157;48.074;9.952;2022-07-06T15:18:15;3.45;;;1.40;;
8232;SDS011;4157;48.074;9.952;2022-07-06T15:20:44;5.82;;;1.52;;
8232;SDS011;4157;48.074;9.952;2022-07-06T15:23:11;3.42;;;1.23;;
8232;SDS011;4157;48.074;9.952;2022-07-06T15:25:39;3.25;;;1.30;;
8232;SDS011;4157;48.074;9.952;2022-07-06T15:28:07;3.40;;;1.20;;
8232;SDS011;4157;48.074;9.952;2022-07-06T15:30:36;3.28;;;1.33;;
8232;SDS011;4157;48.074;9.952;2022-07-06T15:33:04;4.35;;;1.40;;
8232;SDS011;4157;48.074;9.952;2022-07-06T15:35:32;3.17;;;1.30;;